sensor_id;sensor_type;location;lat;lon;timestamp;P1;durP1;ratioP1;P2;durP2;ratioP2
13461;SDS011;6803;45.264;5.468;2023-04-03T00:00:12;2.27;;;1.67;;
13461;SDS011;6803;45.264;5.468;2023-04-03T00:02:44;2.20;;;1.60;;
13461;SDS011;6803;45.264;5.468;2023-04-03T00:05:15;2.40;;;2.00;;
13461;SDS011;6803;45.264;5.468;2023-04-03T00:07:46;3.83;;;1.50;;
13461;SDS011;6803;45.264;5.468;2023-04-03T00:10:17;4.03;;;1.40;;
13461;SDS011;6803;45.264;5.468;2023-04-03T00:12:48;5.07;;;1.70;;
13461;SDS011;6803;45.264;5.468;2023-04-03T00:15:19;2.03;;;1.53;;
13461;SDS011;6803;45.264;5.468;2023-04-03T00:17:50;6.43;;;1.70;;
13461;SDS011;6803;45.264;5.468;2023-04-03T00:20:21;2.57;;;1.90;;
13461;SDS011;6803;45.264;5.468;2023-04-03T00:22:51;1.83;;;1.53;;
13461;SDS011;6803;45.264;5.468;2023-04-03T00:25:22;5.15;;;1.85;;
13461;SDS011;6803;45.264;5.468;2023-04-03T00:27:53;4.03;;;1.80;;
13461;SDS011;6803;45.264;5.468;2023-04-03T00:30:24;5.63;;;2.20;;
13461;SDS011;6803;45.264;5.468;2023-04-03T00:32:55;1.73;;;1.50;;
13461;SDS011;6803;45.264;5.468;2023-04-03T00:35:26;1.67;;;1.40;;
13461;SDS011;6803;45.264;5.468;2023-04-03T00:37:57;1.80;;;1.20;;
13461;SDS011;6803;45.264;5.468;2023-04-03T00:40:28;4.00;;;2.10;;
13461;SDS011;6803;45.264;5.468;2023-04-03T00:43:08;1.70;;;1.50;;
13461;SDS011;6803;45.264;5.468;2023-04-03T00:45:40;2.20;;;1.80;;
13461;SDS011;6803;45.264;5.468;2023-04-03T00:48:14;2.33;;;2.13;;
13461;SDS011;6803;45.264;5.468;2023-04-03T00:50:47;2.53;;;2.07;;
13461;SDS011;6803;45.264;5.468;2023-04-03T00:53:21;3.63;;;1.90;;
13461;SDS011;6803;45.264;5.468;2023-04-03T00:55:53;3.10;;;2.27;;
13461;SDS011;6803;45.264;5.468;2023-04-03T00:58:28;1.97;;;1.77;;
13461;SDS011;6803;45.264;5.468;2023-04-03T01:01:03;2.93;;;2.10;;
13461;SDS011;6803;45.264;5.468;2023-04-03T01:03:36;3.12;;;2.30;;
13461;SDS011;6803;45.264;5.468;2023-04-03T01:06:07;2.33;;;2.03;;
13461;SDS011;6803;45.264;5.468;2023-04-03T01:08:38;3.00;;;1.97;;
13461;SDS011;6803;45.264;5.468;2023-04-03T01:11:09;3.87;;;2.27;;
13461;SDS011;6803;45.264;5.468;2023-04-03T01:13:39;3.80;;;2.00;;
13461;SDS011;6803;45.264;5.468;2023-04-03T01:16:10;2.30;;;2.00;;
13461;SDS011;6803;45.264;5.468;2023-04-03T01:18:41;2.30;;;1.90;;
13461;SDS011;6803;45.264;5.468;2023-04-03T01:24:34;2.47;;;2.13;;
13461;SDS011;6803;45.264;5.468;2023-04-03T01:27:07;2.97;;;2.33;;
13461;SDS011;6803;45.264;5.468;2023-04-03T01:29:40;3.37;;;2.50;;
13461;SDS011;6803;45.264;5.468;2023-04-03T01:32:14;3.23;;;2.20;;
13461;SDS011;6803;45.264;5.468;2023-04-03T01:34:45;2.80;;;2.50;;
13461;SDS011;6803;45.264;5.468;2023-04-03T01:37:16;2.97;;;2.60;;
13461;SDS011;6803;45.264;5.468;2023-04-03T01:39:46;4.23;;;3.00;;
13461;SDS011;6803;45.264;5.468;2023-04-03T01:42:17;3.67;;;2.80;;
13461;SDS011;6803;45.264;5.468;2023-04-03T01:44:48;5.77;;;2.77;;
13461;SDS011;6803;45.264;5.468;2023-04-03T01:47:18;2.90;;;2.60;;
13461;SDS011;6803;45.264;5.468;2023-04-03T01:49:50;3.10;;;2.80;;
13461;SDS011;6803;45.264;5.468;2023-04-03T01:52:21;5.50;;;2.53;;
13461;SDS011;6803;45.264;5.468;2023-04-03T01:54:51;2.83;;;2.37;;
13461;SDS011;6803;45.264;5.468;2023-04-03T01:57:22;2.53;;;2.30;;
13461;SDS011;6803;45.264;5.468;2023-04-03T01:59:53;2.97;;;2.20;;
13461;SDS011;6803;45.264;5.468;2023-04-03T02:02:24;2.47;;;2.20;;
13461;SDS011;6803;45.264;5.468;2023-04-03T02:04:54;2.50;;;2.00;;
13461;SDS011;6803;45.264;5.468;2023-04-03T02:07:25;2.20;;;2.00;;
13461;SDS011;6803;45.264;5.468;2023-04-03T02:09:55;2.80;;;2.13;;
13461;SDS011;6803;45.264;5.468;2023-04-03T02:12:26;3.30;;;2.10;;
13461;SDS011;6803;45.264;5.468;2023-04-03T02:14:57;5.13;;;2.20;;
13461;SDS011;6803;45.264;5.468;2023-04-03T02:17:28;3.07;;;2.47;;
13461;SDS011;6803;45.264;5.468;2023-04-03T02:19:59;2.77;;;2.23;;
13461;SDS011;6803;45.264;5.468;2023-04-03T02:22:31;2.70;;;2.17;;
13461;SDS011;6803;45.264;5.468;2023-04-03T02:25:01;2.20;;;1.80;;
13461;SDS011;6803;45.264;5.468;2023-04-03T02:27:33;2.33;;;2.13;;
13461;SDS011;6803;45.264;5.468;2023-04-03T02:30:04;2.53;;;2.33;;
13461;SDS011;6803;45.264;5.468;2023-04-03T02:32:38;2.57;;;2.07;;
13461;SDS011;6803;45.264;5.468;2023-04-03T02:35:10;2.17;;;1.97;;
13461;SDS011;6803;45.264;5.468;2023-04-03T02:37:41;3.07;;;2.60;;
13461;SDS011;6803;45.264;5.468;2023-04-03T02:40:11;4.00;;;2.47;;
13461;SDS011;6803;45.264;5.468;2023-04-03T02:42:42;2.40;;;2.20;;
13461;SDS011;6803;45.264;5.468;2023-04-03T02:45:13;4.07;;;2.10;;
13461;SDS011;6803;45.264;5.468;2023-04-03T02:47:44;4.27;;;2.23;;
13461;SDS011;6803;45.264;5.468;2023-04-03T02:50:15;2.73;;;2.30;;
13461;SDS011;6803;45.264;5.468;2023-04-03T02:52:46;3.10;;;2.23;;
13461;SDS011;6803;45.264;5.468;2023-04-03T02:55:17;2.83;;;2.37;;
13461;SDS011;6803;45.264;5.468;2023-04-03T02:57:48;2.17;;;1.90;;
13461;SDS011;6803;45.264;5.468;2023-04-03T03:00:19;3.07;;;1.70;;
13461;SDS011;6803;45.264;5.468;2023-04-03T03:02:50;1.90;;;1.70;;
13461;SDS011;6803;45.264;5.468;2023-04-03T03:05:21;2.27;;;1.80;;
13461;SDS011;6803;45.264;5.468;2023-04-03T03:07:52;3.77;;;2.63;;
13461;SDS011;6803;45.264;5.468;2023-04-03T03:10:23;3.10;;;2.40;;
13461;SDS011;6803;45.264;5.468;2023-04-03T03:12:54;2.40;;;2.20;;
13461;SDS011;6803;45.264;5.468;2023-04-03T03:15:24;2.17;;;1.77;;
13461;SDS011;6803;45.264;5.468;2023-04-03T03:17:55;2.60;;;2.27;;
13461;SDS011;6803;45.264;5.468;2023-04-03T03:20:26;2.33;;;2.13;;
13461;SDS011;6803;45.264;5.468;2023-04-03T03:22:56;2.50;;;1.80;;
13461;SDS011;6803;45.264;5.468;2023-04-03T03:25:27;1.93;;;1.83;;
13461;SDS011;6803;45.264;5.468;2023-04-03T03:27:58;3.53;;;2.20;;
13461;SDS011;6803;45.264;5.468;2023-04-03T03:30:30;3.57;;;2.80;;
13461;SDS011;6803;45.264;5.468;2023-04-03T03:33:00;2.97;;;2.30;;
13461;SDS011;6803;45.264;5.468;2023-04-03T03:35:31;2.40;;;2.00;;
13461;SDS011;6803;45.264;5.468;2023-04-03T03:38:03;2.40;;;2.00;;
13461;SDS011;6803;45.264;5.468;2023-04-03T03:40:34;3.40;;;2.50;;
13461;SDS011;6803;45.264;5.468;2023-04-03T03:43:04;2.90;;;2.00;;
13461;SDS011;6803;45.264;5.468;2023-04-03T03:45:35;3.23;;;2.50;;
13461;SDS011;6803;45.264;5.468;2023-04-03T03:48:06;2.57;;;2.37;;
13461;SDS011;6803;45.264;5.468;2023-04-03T03:50:38;10.60;;;2.80;;
13461;SDS011;6803;45.264;5.468;2023-04-03T03:53:08;3.80;;;2.50;;
13461;SDS011;6803;45.264;5.468;2023-04-03T03:55:39;2.90;;;2.40;;
13461;SDS011;6803;45.264;5.468;2023-04-03T03:58:10;2.67;;;2.40;;
13461;SDS011;6803;45.264;5.468;2023-04-03T04:00:40;2.60;;;2.40;;
13461;SDS011;6803;45.264;5.468;2023-04-03T04:03:11;2.77;;;2.57;;
13461;SDS011;6803;45.264;5.468;2023-04-03T04:05:42;6.53;;;2.47;;
13461;SDS011;6803;45.264;5.468;2023-04-03T04:08:13;5.87;;;2.80;;
13461;SDS011;6803;45.264;5.468;2023-04-03T04:10:44;2.67;;;2.10;;
13461;SDS011;6803;45.264;5.468;2023-04-03T04:13:14;2.93;;;2.50;;
13461;SDS011;6803;45.264;5.468;2023-04-03T04:15:45;4.73;;;2.77;;
13461;SDS011;6803;45.264;5.468;2023-04-03T04:18:16;3.50;;;3.20;;
13461;SDS011;6803;45.264;5.468;2023-04-03T04:20:47;4.07;;;2.87;;
13461;SDS011;6803;45.264;5.468;2023-04-03T04:23:19;4.40;;;3.63;;
13461;SDS011;6803;45.264;5.468;2023-04-03T04:25:49;4.10;;;3.70;;
13461;SDS011;6803;45.264;5.468;2023-04-03T04:28:20;3.60;;;3.30;;
13461;SDS011;6803;45.264;5.468;2023-04-03T04:30:51;4.30;;;3.60;;
13461;SDS011;6803;45.264;5.468;2023-04-03T04:33:22;3.20;;;2.90;;
13461;SDS011;6803;45.264;5.468;2023-04-03T04:35:53;4.27;;;3.33;;
13461;SDS011;6803;45.264;5.468;2023-04-03T04:38:24;6.67;;;2.77;;
13461;SDS011;6803;45.264;5.468;2023-04-03T04:40:55;3.00;;;2.70;;
13461;SDS011;6803;45.264;5.468;2023-04-03T04:43:25;3.67;;;3.00;;
13461;SDS011;6803;45.264;5.468;2023-04-03T04:46:03;3.03;;;2.40;;
13461;SDS011;6803;45.264;5.468;2023-04-03T04:48:38;2.60;;;2.40;;
13461;SDS011;6803;45.264;5.468;2023-04-03T04:51:09;3.13;;;2.50;;
13461;SDS011;6803;45.264;5.468;2023-04-03T04:53:40;3.17;;;2.47;;
13461;SDS011;6803;45.264;5.468;2023-04-03T04:56:11;2.60;;;2.40;;
13461;SDS011;6803;45.264;5.468;2023-04-03T04:58:42;2.23;;;2.03;;
13461;SDS011;6803;45.264;5.468;2023-04-03T05:01:12;3.87;;;2.43;;
13461;SDS011;6803;45.264;5.468;2023-04-03T05:03:43;2.77;;;2.57;;
13461;SDS011;6803;45.264;5.468;2023-04-03T05:06:15;3.30;;;2.70;;
13461;SDS011;6803;45.264;5.468;2023-04-03T05:08:46;3.10;;;2.80;;
13461;SDS011;6803;45.264;5.468;2023-04-03T05:11:17;3.60;;;3.30;;
13461;SDS011;6803;45.264;5.468;2023-04-03T05:13:49;3.57;;;2.83;;
13461;SDS011;6803;45.264;5.468;2023-04-03T05:16:20;4.87;;;3.20;;
13461;SDS011;6803;45.264;5.468;2023-04-03T05:18:51;3.03;;;2.70;;
13461;SDS011;6803;45.264;5.468;2023-04-03T05:21:21;3.00;;;2.70;;
13461;SDS011;6803;45.264;5.468;2023-04-03T05:23:53;3.20;;;2.63;;
13461;SDS011;6803;45.264;5.468;2023-04-03T05:26:24;3.90;;;3.00;;
13461;SDS011;6803;45.264;5.468;2023-04-03T05:28:55;3.03;;;2.83;;
13461;SDS011;6803;45.264;5.468;2023-04-03T05:31:26;4.53;;;4.13;;
13461;SDS011;6803;45.264;5.468;2023-04-03T05:33:58;4.77;;;4.30;;
13461;SDS011;6803;45.264;5.468;2023-04-03T05:36:29;5.47;;;4.37;;
13461;SDS011;6803;45.264;5.468;2023-04-03T05:38:59;4.80;;;4.30;;
13461;SDS011;6803;45.264;5.468;2023-04-03T05:41:31;5.50;;;4.13;;
13461;SDS011;6803;45.264;5.468;2023-04-03T05:44:01;4.40;;;4.00;;
13461;SDS011;6803;45.264;5.468;2023-04-03T05:46:32;4.73;;;4.30;;
13461;SDS011;6803;45.264;5.468;2023-04-03T05:49:03;4.80;;;4.30;;
13461;SDS011;6803;45.264;5.468;2023-04-03T05:51:34;3.93;;;3.63;;
13461;SDS011;6803;45.264;5.468;2023-04-03T05:54:08;4.37;;;3.97;;
13461;SDS011;6803;45.264;5.468;2023-04-03T05:59:30;4.53;;;4.13;;
13461;SDS011;6803;45.264;5.468;2023-04-03T06:02:01;5.97;;;4.23;;
13461;SDS011;6803;45.264;5.468;2023-04-03T06:04:33;6.47;;;4.43;;
13461;SDS011;6803;45.264;5.468;2023-04-03T06:07:04;5.47;;;4.57;;
13461;SDS011;6803;45.264;5.468;2023-04-03T06:09:36;5.97;;;4.00;;
13461;SDS011;6803;45.264;5.468;2023-04-03T06:12:07;4.87;;;4.10;;
13461;SDS011;6803;45.264;5.468;2023-04-03T06:14:39;4.90;;;4.40;;
13461;SDS011;6803;45.264;5.468;2023-04-03T06:17:10;4.43;;;3.90;;
13461;SDS011;6803;45.264;5.468;2023-04-03T06:19:41;4.73;;;3.90;;
13461;SDS011;6803;45.264;5.468;2023-04-03T06:22:12;4.50;;;3.97;;
13461;SDS011;6803;45.264;5.468;2023-04-03T06:24:44;7.27;;;4.73;;
13461;SDS011;6803;45.264;5.468;2023-04-03T06:27:15;4.70;;;4.17;;
13461;SDS011;6803;45.264;5.468;2023-04-03T06:29:46;5.57;;;4.77;;
13461;SDS011;6803;45.264;5.468;2023-04-03T06:32:18;5.30;;;4.43;;
13461;SDS011;6803;45.264;5.468;2023-04-03T06:34:49;5.53;;;4.43;;
13461;SDS011;6803;45.264;5.468;2023-04-03T06:37:22;5.17;;;4.33;;
13461;SDS011;6803;45.264;5.468;2023-04-03T06:39:55;5.30;;;4.80;;
13461;SDS011;6803;45.264;5.468;2023-04-03T06:42:28;5.23;;;4.43;;
13461;SDS011;6803;45.264;5.468;2023-04-03T06:44:59;4.53;;;4.10;;
13461;SDS011;6803;45.264;5.468;2023-04-03T06:47:29;5.83;;;4.47;;
13461;SDS011;6803;45.264;5.468;2023-04-03T06:50:00;4.80;;;4.30;;
13461;SDS011;6803;45.264;5.468;2023-04-03T06:52:31;5.10;;;4.60;;
13461;SDS011;6803;45.264;5.468;2023-04-03T06:55:02;5.00;;;4.33;;
13461;SDS011;6803;45.264;5.468;2023-04-03T06:57:34;5.20;;;4.40;;
13461;SDS011;6803;45.264;5.468;2023-04-03T07:00:06;6.23;;;4.00;;
13461;SDS011;6803;45.264;5.468;2023-04-03T07:02:39;5.87;;;4.40;;
13461;SDS011;6803;45.264;5.468;2023-04-03T07:05:11;4.87;;;4.37;;
13461;SDS011;6803;45.264;5.468;2023-04-03T07:07:42;4.47;;;3.90;;
13461;SDS011;6803;45.264;5.468;2023-04-03T07:10:13;4.47;;;4.07;;
13461;SDS011;6803;45.264;5.468;2023-04-03T07:12:44;5.70;;;5.10;;
13461;SDS011;6803;45.264;5.468;2023-04-03T07:15:15;6.07;;;4.73;;
13461;SDS011;6803;45.264;5.468;2023-04-03T07:17:46;5.07;;;4.57;;
13461;SDS011;6803;45.264;5.468;2023-04-03T07:20:17;6.77;;;5.67;;
13461;SDS011;6803;45.264;5.468;2023-04-03T07:22:48;9.17;;;6.10;;
13461;SDS011;6803;45.264;5.468;2023-04-03T07:25:19;10.13;;;5.77;;
13461;SDS011;6803;45.264;5.468;2023-04-03T07:27:49;6.77;;;5.77;;
13461;SDS011;6803;45.264;5.468;2023-04-03T07:30:22;7.20;;;5.90;;
13461;SDS011;6803;45.264;5.468;2023-04-03T07:32:53;7.97;;;6.20;;
13461;SDS011;6803;45.264;5.468;2023-04-03T07:35:24;6.03;;;5.17;;
13461;SDS011;6803;45.264;5.468;2023-04-03T07:37:55;8.97;;;5.70;;
13461;SDS011;6803;45.264;5.468;2023-04-03T07:40:25;27.10;;;7.63;;
13461;SDS011;6803;45.264;5.468;2023-04-03T07:42:56;45.27;;;9.13;;
13461;SDS011;6803;45.264;5.468;2023-04-03T07:45:27;36.93;;;8.25;;
13461;SDS011;6803;45.264;5.468;2023-04-03T07:47:59;16.83;;;6.20;;
13461;SDS011;6803;45.264;5.468;2023-04-03T07:50:31;14.57;;;5.90;;
13461;SDS011;6803;45.264;5.468;2023-04-03T07:53:04;10.67;;;5.37;;
13461;SDS011;6803;45.264;5.468;2023-04-03T07:55:35;10.63;;;4.97;;
13461;SDS011;6803;45.264;5.468;2023-04-03T07:58:10;7.03;;;5.00;;
13461;SDS011;6803;45.264;5.468;2023-04-03T08:00:42;12.80;;;5.13;;
13461;SDS011;6803;45.264;5.468;2023-04-03T08:03:14;5.53;;;4.80;;
13461;SDS011;6803;45.264;5.468;2023-04-03T08:05:46;5.03;;;4.47;;
13461;SDS011;6803;45.264;5.468;2023-04-03T08:08:19;8.97;;;4.87;;
13461;SDS011;6803;45.264;5.468;2023-04-03T08:10:52;5.73;;;4.67;;
13461;SDS011;6803;45.264;5.468;2023-04-03T08:13:23;15.03;;;4.73;;
13461;SDS011;6803;45.264;5.468;2023-04-03T08:15:54;11.20;;;5.07;;
13461;SDS011;6803;45.264;5.468;2023-04-03T08:18:27;4.70;;;4.03;;
13461;SDS011;6803;45.264;5.468;2023-04-03T08:20:57;6.83;;;4.77;;
13461;SDS011;6803;45.264;5.468;2023-04-03T08:23:28;5.13;;;4.40;;
13461;SDS011;6803;45.264;5.468;2023-04-03T08:25:59;7.47;;;4.47;;
13461;SDS011;6803;45.264;5.468;2023-04-03T08:28:35;5.07;;;4.27;;
13461;SDS011;6803;45.264;5.468;2023-04-03T08:31:07;4.63;;;4.20;;
13461;SDS011;6803;45.264;5.468;2023-04-03T08:33:39;5.10;;;4.70;;
13461;SDS011;6803;45.264;5.468;2023-04-03T08:36:16;5.17;;;4.73;;
13461;SDS011;6803;45.264;5.468;2023-04-03T08:38:49;5.47;;;4.93;;
13461;SDS011;6803;45.264;5.468;2023-04-03T08:41:24;4.87;;;4.40;;
13461;SDS011;6803;45.264;5.468;2023-04-03T08:43:59;5.07;;;4.57;;
13461;SDS011;6803;45.264;5.468;2023-04-03T08:46:55;5.23;;;4.73;;
13461;SDS011;6803;45.264;5.468;2023-04-03T08:49:37;5.90;;;4.73;;
13461;SDS011;6803;45.264;5.468;2023-04-03T08:52:15;6.83;;;4.30;;
13461;SDS011;6803;45.264;5.468;2023-04-03T08:54:49;5.60;;;5.00;;
13461;SDS011;6803;45.264;5.468;2023-04-03T08:57:26;5.67;;;5.17;;
13461;SDS011;6803;45.264;5.468;2023-04-03T09:00:01;5.17;;;4.67;;
13461;SDS011;6803;45.264;5.468;2023-04-03T09:02:38;5.73;;;5.23;;
13461;SDS011;6803;45.264;5.468;2023-04-03T09:05:11;7.93;;;5.03;;
13461;SDS011;6803;45.264;5.468;2023-04-03T09:07:44;5.67;;;5.07;;
13461;SDS011;6803;45.264;5.468;2023-04-03T09:10:19;6.27;;;5.03;;
13461;SDS011;6803;45.264;5.468;2023-04-03T09:13:01;5.70;;;5.20;;
13461;SDS011;6803;45.264;5.468;2023-04-03T09:15:35;4.73;;;4.33;;
13461;SDS011;6803;45.264;5.468;2023-04-03T09:18:08;4.47;;;4.00;;
13461;SDS011;6803;45.264;5.468;2023-04-03T09:20:45;4.70;;;4.30;;
13461;SDS011;6803;45.264;5.468;2023-04-03T09:23:21;5.63;;;4.30;;
13461;SDS011;6803;45.264;5.468;2023-04-03T09:25:58;4.60;;;3.90;;
13461;SDS011;6803;45.264;5.468;2023-04-03T09:28:35;4.77;;;3.63;;
13461;SDS011;6803;45.264;5.468;2023-04-03T09:31:14;4.47;;;4.03;;
13461;SDS011;6803;45.264;5.468;2023-04-03T09:33:49;4.67;;;4.23;;
13461;SDS011;6803;45.264;5.468;2023-04-03T09:36:42;4.60;;;4.20;;
13461;SDS011;6803;45.264;5.468;2023-04-03T09:39:16;4.27;;;3.90;;
13461;SDS011;6803;45.264;5.468;2023-04-03T09:41:55;4.43;;;4.03;;
13461;SDS011;6803;45.264;5.468;2023-04-03T09:44:30;4.30;;;3.90;;
13461;SDS011;6803;45.264;5.468;2023-04-03T09:47:16;3.97;;;3.67;;
13461;SDS011;6803;45.264;5.468;2023-04-03T09:49:48;4.53;;;4.17;;
13461;SDS011;6803;45.264;5.468;2023-04-03T09:52:20;5.13;;;4.73;;
13461;SDS011;6803;45.264;5.468;2023-04-03T09:54:53;5.33;;;4.33;;
13461;SDS011;6803;45.264;5.468;2023-04-03T09:57:28;4.60;;;4.07;;
13461;SDS011;6803;45.264;5.468;2023-04-03T09:59:59;4.20;;;3.90;;
13461;SDS011;6803;45.264;5.468;2023-04-03T10:02:36;4.30;;;3.90;;
13461;SDS011;6803;45.264;5.468;2023-04-03T10:05:25;6.53;;;5.60;;
13461;SDS011;6803;45.264;5.468;2023-04-03T10:11:08;8.17;;;7.23;;
13461;SDS011;6803;45.264;5.468;2023-04-03T10:13:50;10.80;;;8.07;;
13461;SDS011;6803;45.264;5.468;2023-04-03T10:16:28;9.60;;;7.60;;
13461;SDS011;6803;45.264;5.468;2023-04-03T10:19:09;12.43;;;7.97;;
13461;SDS011;6803;45.264;5.468;2023-04-03T10:22:01;9.57;;;7.50;;
13461;SDS011;6803;45.264;5.468;2023-04-03T10:24:38;8.33;;;6.50;;
13461;SDS011;6803;45.264;5.468;2023-04-03T10:27:18;7.60;;;6.47;;
13461;SDS011;6803;45.264;5.468;2023-04-03T10:29:54;7.53;;;6.23;;
13461;SDS011;6803;45.264;5.468;2023-04-03T10:32:29;8.03;;;5.93;;
13461;SDS011;6803;45.264;5.468;2023-04-03T10:35:20;7.10;;;6.27;;
13461;SDS011;6803;45.264;5.468;2023-04-03T10:37:59;5.93;;;5.33;;
13461;SDS011;6803;45.264;5.468;2023-04-03T10:40:34;5.90;;;5.07;;
13461;SDS011;6803;45.264;5.468;2023-04-03T10:43:09;6.97;;;5.30;;
13461;SDS011;6803;45.264;5.468;2023-04-03T10:45:49;8.40;;;4.77;;
13461;SDS011;6803;45.264;5.468;2023-04-03T10:48:28;5.83;;;5.23;;
13461;SDS011;6803;45.264;5.468;2023-04-03T10:51:18;5.33;;;4.83;;
13461;SDS011;6803;45.264;5.468;2023-04-03T10:53:56;5.30;;;3.70;;
13461;SDS011;6803;45.264;5.468;2023-04-03T10:56:31;5.43;;;3.83;;
13461;SDS011;6803;45.264;5.468;2023-04-03T10:59:11;5.37;;;3.83;;
13461;SDS011;6803;45.264;5.468;2023-04-03T11:01:46;6.90;;;3.80;;
13461;SDS011;6803;45.264;5.468;2023-04-03T11:04:19;4.40;;;3.97;;
13461;SDS011;6803;45.264;5.468;2023-04-03T11:06:57;4.90;;;4.20;;
13461;SDS011;6803;45.264;5.468;2023-04-03T11:09:28;4.87;;;4.07;;
13461;SDS011;6803;45.264;5.468;2023-04-03T11:12:04;4.50;;;4.10;;
13461;SDS011;6803;45.264;5.468;2023-04-03T11:14:36;4.57;;;4.13;;
13461;SDS011;6803;45.264;5.468;2023-04-03T11:17:14;4.97;;;4.47;;
13461;SDS011;6803;45.264;5.468;2023-04-03T11:20:01;4.97;;;4.47;;
13461;SDS011;6803;45.264;5.468;2023-04-03T11:22:35;5.57;;;4.93;;
13461;SDS011;6803;45.264;5.468;2023-04-03T11:25:14;4.63;;;4.10;;
13461;SDS011;6803;45.264;5.468;2023-04-03T11:27:51;5.07;;;4.57;;
13461;SDS011;6803;45.264;5.468;2023-04-03T11:30:27;5.13;;;4.53;;
13461;SDS011;6803;45.264;5.468;2023-04-03T11:33:05;5.07;;;4.47;;
13461;SDS011;6803;45.264;5.468;2023-04-03T11:35:43;5.92;;;5.00;;
13461;SDS011;6803;45.264;5.468;2023-04-03T11:38:19;10.40;;;4.70;;
13461;SDS011;6803;45.264;5.468;2023-04-03T11:40:53;6.00;;;4.30;;
13461;SDS011;6803;45.264;5.468;2023-04-03T11:43:26;5.67;;;4.70;;
13461;SDS011;6803;45.264;5.468;2023-04-03T11:45:59;6.73;;;4.93;;
13461;SDS011;6803;45.264;5.468;2023-04-03T11:48:48;5.60;;;5.10;;
13461;SDS011;6803;45.264;5.468;2023-04-03T11:51:39;5.70;;;5.10;;
13461;SDS011;6803;45.264;5.468;2023-04-03T11:57:44;6.53;;;5.13;;
13461;SDS011;6803;45.264;5.468;2023-04-03T12:12:58;6.77;;;5.13;;
13461;SDS011;6803;45.264;5.468;2023-04-03T12:24:54;6.37;;;4.87;;
13461;SDS011;6803;45.264;5.468;2023-04-03T12:27:28;6.13;;;5.23;;
13461;SDS011;6803;45.264;5.468;2023-04-03T12:30:11;6.03;;;5.00;;
13461;SDS011;6803;45.264;5.468;2023-04-03T12:32:54;5.60;;;5.07;;
13461;SDS011;6803;45.264;5.468;2023-04-03T12:35:30;5.60;;;4.90;;
13461;SDS011;6803;45.264;5.468;2023-04-03T12:38:18;5.57;;;5.03;;
13461;SDS011;6803;45.264;5.468;2023-04-03T12:41:19;12.07;;;5.43;;
13461;SDS011;6803;45.264;5.468;2023-04-03T12:44:01;5.90;;;5.10;;
13461;SDS011;6803;45.264;5.468;2023-04-03T12:46:42;6.90;;;4.83;;
13461;SDS011;6803;45.264;5.468;2023-04-03T12:49:18;5.50;;;5.00;;
13461;SDS011;6803;45.264;5.468;2023-04-03T12:54:49;6.17;;;5.03;;
13461;SDS011;6803;45.264;5.468;2023-04-03T12:57:24;5.40;;;4.90;;
13461;SDS011;6803;45.264;5.468;2023-04-03T13:00:01;5.67;;;4.87;;
13461;SDS011;6803;45.264;5.468;2023-04-03T13:02:49;5.13;;;4.63;;
13461;SDS011;6803;45.264;5.468;2023-04-03T13:05:20;5.90;;;5.13;;
13461;SDS011;6803;45.264;5.468;2023-04-03T13:07:58;6.90;;;4.70;;
13461;SDS011;6803;45.264;5.468;2023-04-03T13:10:27;5.00;;;4.47;;
13461;SDS011;6803;45.264;5.468;2023-04-03T13:13:06;6.67;;;4.67;;
13461;SDS011;6803;45.264;5.468;2023-04-03T13:15:41;5.77;;;4.80;;
13461;SDS011;6803;45.264;5.468;2023-04-03T13:18:24;5.17;;;4.53;;
13461;SDS011;6803;45.264;5.468;2023-04-03T13:20:58;7.77;;;4.60;;
13461;SDS011;6803;45.264;5.468;2023-04-03T13:23:32;5.27;;;4.53;;
13461;SDS011;6803;45.264;5.468;2023-04-03T13:26:06;5.87;;;5.27;;
13461;SDS011;6803;45.264;5.468;2023-04-03T13:28:38;7.27;;;5.00;;
13461;SDS011;6803;45.264;5.468;2023-04-03T13:31:18;5.20;;;4.70;;
13461;SDS011;6803;45.264;5.468;2023-04-03T13:33:55;5.60;;;5.10;;
13461;SDS011;6803;45.264;5.468;2023-04-03T13:36:29;5.63;;;5.03;;
13461;SDS011;6803;45.264;5.468;2023-04-03T13:39:21;5.60;;;4.77;;
13461;SDS011;6803;45.264;5.468;2023-04-03T13:41:52;6.70;;;5.10;;
13461;SDS011;6803;45.264;5.468;2023-04-03T13:44:29;5.00;;;4.27;;
13461;SDS011;6803;45.264;5.468;2023-04-03T13:47:14;9.57;;;4.43;;
13461;SDS011;6803;45.264;5.468;2023-04-03T13:49:45;6.00;;;5.20;;
13461;SDS011;6803;45.264;5.468;2023-04-03T13:52:30;4.83;;;4.20;;
13461;SDS011;6803;45.264;5.468;2023-04-03T13:55:11;6.10;;;4.97;;
13461;SDS011;6803;45.264;5.468;2023-04-03T13:57:49;5.10;;;4.60;;
13461;SDS011;6803;45.264;5.468;2023-04-03T14:00:34;6.90;;;4.40;;
13461;SDS011;6803;45.264;5.468;2023-04-03T14:03:16;5.43;;;4.93;;
13461;SDS011;6803;45.264;5.468;2023-04-03T14:05:48;5.60;;;4.87;;
13461;SDS011;6803;45.264;5.468;2023-04-03T14:08:19;5.27;;;4.77;;
13461;SDS011;6803;45.264;5.468;2023-04-03T14:10:52;5.23;;;4.73;;
13461;SDS011;6803;45.264;5.468;2023-04-03T14:13:24;5.63;;;4.50;;
13461;SDS011;6803;45.264;5.468;2023-04-03T14:15:54;5.57;;;4.97;;
13461;SDS011;6803;45.264;5.468;2023-04-03T14:18:27;5.07;;;4.40;;
13461;SDS011;6803;45.264;5.468;2023-04-03T14:20:58;5.47;;;4.40;;
13461;SDS011;6803;45.264;5.468;2023-04-03T14:23:28;5.53;;;4.60;;
13461;SDS011;6803;45.264;5.468;2023-04-03T14:26:00;5.23;;;4.73;;
13461;SDS011;6803;45.264;5.468;2023-04-03T14:28:31;4.70;;;4.20;;
13461;SDS011;6803;45.264;5.468;2023-04-03T14:31:02;7.23;;;4.73;;
13461;SDS011;6803;45.264;5.468;2023-04-03T14:33:33;4.83;;;4.23;;
13461;SDS011;6803;45.264;5.468;2023-04-03T14:36:09;5.07;;;4.10;;
13461;SDS011;6803;45.264;5.468;2023-04-03T14:38:42;4.90;;;4.40;;
13461;SDS011;6803;45.264;5.468;2023-04-03T14:41:15;8.73;;;4.27;;
13461;SDS011;6803;45.264;5.468;2023-04-03T14:43:48;4.90;;;4.00;;
13461;SDS011;6803;45.264;5.468;2023-04-03T14:46:22;7.73;;;4.40;;
13461;SDS011;6803;45.264;5.468;2023-04-03T14:48:59;6.95;;;4.90;;
13461;SDS011;6803;45.264;5.468;2023-04-03T14:51:30;4.57;;;4.13;;
13461;SDS011;6803;45.264;5.468;2023-04-03T14:54:01;4.90;;;4.10;;
13461;SDS011;6803;45.264;5.468;2023-04-03T14:56:32;4.67;;;4.17;;
13461;SDS011;6803;45.264;5.468;2023-04-03T14:59:04;4.70;;;3.83;;
13461;SDS011;6803;45.264;5.468;2023-04-03T15:01:39;4.50;;;4.10;;
13461;SDS011;6803;45.264;5.468;2023-04-03T15:04:11;4.33;;;3.73;;
13461;SDS011;6803;45.264;5.468;2023-04-03T15:06:43;4.13;;;3.73;;
13461;SDS011;6803;45.264;5.468;2023-04-03T15:09:18;4.90;;;3.70;;
13461;SDS011;6803;45.264;5.468;2023-04-03T15:11:51;4.17;;;3.77;;
13461;SDS011;6803;45.264;5.468;2023-04-03T15:14:23;4.40;;;3.67;;
13461;SDS011;6803;45.264;5.468;2023-04-03T15:16:56;4.40;;;3.77;;
13461;SDS011;6803;45.264;5.468;2023-04-03T15:19:27;4.13;;;3.73;;
13461;SDS011;6803;45.264;5.468;2023-04-03T15:21:58;4.60;;;4.10;;
13461;SDS011;6803;45.264;5.468;2023-04-03T15:24:29;4.37;;;3.97;;
13461;SDS011;6803;45.264;5.468;2023-04-03T15:27:00;5.10;;;3.90;;
13461;SDS011;6803;45.264;5.468;2023-04-03T15:29:31;4.33;;;3.93;;
13461;SDS011;6803;45.264;5.468;2023-04-03T15:32:02;5.57;;;3.80;;
13461;SDS011;6803;45.264;5.468;2023-04-03T15:34:33;7.23;;;4.07;;
13461;SDS011;6803;45.264;5.468;2023-04-03T15:37:04;5.37;;;3.93;;
13461;SDS011;6803;45.264;5.468;2023-04-03T15:39:35;3.57;;;3.03;;
13461;SDS011;6803;45.264;5.468;2023-04-03T15:42:06;4.70;;;3.57;;
13461;SDS011;6803;45.264;5.468;2023-04-03T15:44:37;4.03;;;3.63;;
13461;SDS011;6803;45.264;5.468;2023-04-03T15:47:08;3.50;;;3.20;;
13461;SDS011;6803;45.264;5.468;2023-04-03T15:49:39;3.63;;;3.20;;
13461;SDS011;6803;45.264;5.468;2023-04-03T15:52:10;4.33;;;3.30;;
13461;SDS011;6803;45.264;5.468;2023-04-03T15:54:41;3.77;;;3.30;;
13461;SDS011;6803;45.264;5.468;2023-04-03T15:57:12;4.40;;;3.70;;
13461;SDS011;6803;45.264;5.468;2023-04-03T15:59:43;5.00;;;3.60;;
13461;SDS011;6803;45.264;5.468;2023-04-03T16:02:13;3.97;;;3.53;;
13461;SDS011;6803;45.264;5.468;2023-04-03T16:04:45;4.70;;;3.40;;
13461;SDS011;6803;45.264;5.468;2023-04-03T16:07:16;6.27;;;3.67;;
13461;SDS011;6803;45.264;5.468;2023-04-03T16:09:47;3.70;;;3.30;;
13461;SDS011;6803;45.264;5.468;2023-04-03T16:12:18;4.03;;;3.47;;
13461;SDS011;6803;45.264;5.468;2023-04-03T16:14:48;4.20;;;3.77;;